createdAt,value
2023-04-16T00:01:10.328Z,46.17
2023-04-16T00:03:38.233Z,50.20
2023-04-16T00:06:06.606Z,46.20
2023-04-16T00:08:35.583Z,50.10
2023-04-16T00:11:03.392Z,50.38
2023-04-16T00:13:31.120Z,48.45
2023-04-16T00:16:00.350Z,52.05
2023-04-16T00:18:28.063Z,48.10
2023-04-16T00:20:55.926Z,49.15
2023-04-16T00:23:25.169Z,49.53
2023-04-16T00:25:53.617Z,48.78
2023-04-16T00:28:21.348Z,50.30
2023-04-16T00:30:49.145Z,46.15
2023-04-16T00:33:18.291Z,47.33
2023-04-16T00:35:46.565Z,54.47
2023-04-16T00:38:15.124Z,51.08
2023-04-16T00:40:43.023Z,52.45
2023-04-16T00:43:10.873Z,42.17
2023-04-16T00:45:39.565Z,40.03
2023-04-16T00:48:07.436Z,43.45
2023-04-16T00:50:36.651Z,42.75
2023-04-16T00:53:04.434Z,43.08
2023-04-16T00:55:32.398Z,52.10
2023-04-16T00:58:00.630Z,49.85
2023-04-16T01:00:28.410Z,49.92
2023-04-16T01:02:56.926Z,48.15
2023-04-16T01:05:24.778Z,41.58
2023-04-16T01:07:53.891Z,43.70
2023-04-16T01:10:21.661Z,50.10
2023-04-16T01:12:49.425Z,42.03
2023-04-16T01:15:17.268Z,49.47
2023-04-16T01:17:47.129Z,44.97
2023-04-16T01:20:15.009Z,53.10
2023-04-16T01:22:44.108Z,51.28
2023-04-16T01:25:15.784Z,52.40
2023-04-16T01:27:43.664Z,47.40
2023-04-16T01:30:11.983Z,54.15
2023-04-16T01:32:59.607Z,47.47
2023-04-16T01:35:27.558Z,43.42
2023-04-16T01:37:56.682Z,53.20
2023-04-16T01:40:24.572Z,44.63
2023-04-16T01:42:52.310Z,44.00
2023-04-16T01:45:20.316Z,52.97
2023-04-16T01:47:48.173Z,50.60
2023-04-16T01:50:15.955Z,52.70
2023-04-16T01:52:43.672Z,49.88
2023-04-16T01:55:13.031Z,47.55
2023-04-16T01:57:40.825Z,43.85
2023-04-16T02:00:09.693Z,47.72
2023-04-16T02:02:46.640Z,44.50
2023-04-16T02:05:19.716Z,39.97
2023-04-16T02:07:47.775Z,39.70
2023-04-16T02:10:16.970Z,43.33
2023-04-16T02:12:45.476Z,48.15
2023-04-16T02:15:15.739Z,41.90
2023-04-16T02:17:43.723Z,43.63
2023-04-16T02:20:12.644Z,40.83
2023-04-16T02:22:51.127Z,37.13
2023-04-16T02:25:23.120Z,40.65
2023-04-16T02:27:52.173Z,40.78
2023-04-16T02:30:27.600Z,45.53
2023-04-16T02:32:55.789Z,40.03
2023-04-16T02:35:23.580Z,42.53
2023-04-16T02:37:51.366Z,36.53
2023-04-16T02:40:19.332Z,44.35
2023-04-16T02:42:48.974Z,32.85
2023-04-16T02:45:17.056Z,45.97
2023-04-16T02:47:44.845Z,39.08
2023-04-16T02:50:12.987Z,42.63
2023-04-16T02:52:40.739Z,37.05
2023-04-16T02:55:09.612Z,40.55
2023-04-16T02:57:37.476Z,51.58
2023-04-16T03:00:08.000Z,34.55
2023-04-16T03:02:36.154Z,47.58
2023-04-16T03:05:04.295Z,36.38
2023-04-16T03:07:32.029Z,46.50
2023-04-16T03:10:00.294Z,44.38
2023-04-16T03:12:28.052Z,44.45
2023-04-16T03:14:55.916Z,44.25
2023-04-16T03:17:25.311Z,41.05
2023-04-16T03:19:53.091Z,41.13
2023-04-16T03:22:20.846Z,42.17
2023-04-16T03:24:48.596Z,37.17
2023-04-16T03:27:16.368Z,44.55
2023-04-16T03:29:45.472Z,42.88
2023-04-16T03:32:13.576Z,41.83
2023-04-16T03:34:42.795Z,41.97
2023-04-16T03:37:11.948Z,38.80
2023-04-16T03:39:40.323Z,41.55
2023-04-16T03:42:08.097Z,41.75
2023-04-16T03:44:36.208Z,43.85
2023-04-16T03:47:03.966Z,39.13
2023-04-16T03:49:31.751Z,44.38
2023-04-16T03:52:01.520Z,43.00
2023-04-16T03:54:29.464Z,49.15
2023-04-16T03:57:07.769Z,49.83
2023-04-16T03:59:35.735Z,46.17
2023-04-16T04:02:03.513Z,51.72
2023-04-16T04:04:32.748Z,48.90
2023-04-16T04:07:02.000Z,44.67
2023-04-16T04:09:29.735Z,44.08
2023-04-16T04:11:57.482Z,46.47
2023-04-16T04:14:25.359Z,44.03
2023-04-16T04:16:53.082Z,41.67
2023-04-16T04:19:20.847Z,40.53
2023-04-16T04:21:49.367Z,44.45
2023-04-16T04:24:19.966Z,40.80
2023-04-16T04:26:47.873Z,42.90
2023-04-16T04:29:15.649Z,39.60
2023-04-16T04:31:43.539Z,41.88
2023-04-16T04:34:11.424Z,39.13
2023-04-16T04:36:39.450Z,43.00
2023-04-16T04:39:07.478Z,41.90
2023-04-16T04:41:36.802Z,42.22
2023-04-16T04:44:05.062Z,46.88
2023-04-16T04:46:32.753Z,46.47
2023-04-16T04:49:00.663Z,44.72
2023-04-16T04:51:28.999Z,45.35
2023-04-16T04:53:57.888Z,44.28
2023-04-16T04:56:25.631Z,46.03
2023-04-16T04:58:54.790Z,46.30
2023-04-16T05:01:22.649Z,46.10
2023-04-16T05:03:50.495Z,44.80
2023-04-16T05:06:18.434Z,51.40
2023-04-16T05:08:46.201Z,49.92
2023-04-16T05:11:13.974Z,49.03
2023-04-16T05:13:41.773Z,46.58
2023-04-16T05:16:10.930Z,43.15
2023-04-16T05:18:38.731Z,47.58
2023-04-16T05:21:06.825Z,54.15
2023-04-16T05:23:34.567Z,48.40
2023-04-16T05:26:02.311Z,48.33
2023-04-16T05:28:31.102Z,49.80
2023-04-16T05:30:58.972Z,45.90
2023-04-16T05:33:28.201Z,51.63
2023-04-16T05:35:55.877Z,43.83
2023-04-16T05:38:23.633Z,53.30
2023-04-16T05:40:51.312Z,44.92
2023-04-16T05:43:19.189Z,48.33
2023-04-16T05:45:46.913Z,47.15
2023-04-16T05:48:14.774Z,49.13
2023-04-16T05:50:43.921Z,51.17
2023-04-16T05:53:13.959Z,49.15
2023-04-16T05:55:41.737Z,49.95
2023-04-16T05:58:09.478Z,48.80
2023-04-16T06:00:37.360Z,47.92
2023-04-16T06:03:05.497Z,48.33
2023-04-16T06:05:33.454Z,45.13
2023-04-16T06:08:02.597Z,45.92
2023-04-16T06:10:30.369Z,50.20
2023-04-16T06:12:58.153Z,47.85
2023-04-16T06:15:25.838Z,43.65
2023-04-16T06:17:53.647Z,48.72
2023-04-16T06:20:21.462Z,46.03
2023-04-16T06:22:49.229Z,45.20
2023-04-16T06:25:18.516Z,45.55
2023-04-16T06:27:46.243Z,46.95
2023-04-16T06:30:14.691Z,42.50
2023-04-16T06:32:43.308Z,43.67
2023-04-16T06:35:11.309Z,45.20
2023-04-16T06:37:39.259Z,39.40
2023-04-16T06:40:07.954Z,52.35
2023-04-16T06:42:37.134Z,44.65
2023-04-16T06:45:05.448Z,45.05
2023-04-16T06:47:33.208Z,44.30
2023-04-16T06:50:00.940Z,43.72
2023-04-16T06:52:29.757Z,41.55
2023-04-16T06:54:57.812Z,43.50
2023-04-16T06:57:25.797Z,42.72
2023-04-16T06:59:54.954Z,34.38
2023-04-16T07:02:22.849Z,37.47
2023-04-16T07:04:52.287Z,37.47
2023-04-16T07:07:20.055Z,40.65
2023-04-16T07:09:47.759Z,36.60
2023-04-16T07:12:15.567Z,35.28
2023-04-16T07:14:48.162Z,32.90
2023-04-16T07:17:17.345Z,36.90
2023-04-16T07:19:45.298Z,35.78
2023-04-16T07:22:13.055Z,36.80
2023-04-16T07:24:40.786Z,41.03
2023-04-16T07:27:08.548Z,33.55
2023-04-16T07:29:36.325Z,31.00
2023-04-16T07:32:04.145Z,33.67
2023-04-16T07:34:33.246Z,31.42
2023-04-16T07:37:00.974Z,33.28
2023-04-16T07:39:28.750Z,34.05
2023-04-16T07:41:56.537Z,33.42
2023-04-16T07:44:24.333Z,36.72
2023-04-16T07:46:52.059Z,36.08
2023-04-16T07:49:20.068Z,37.08
2023-04-16T07:51:49.207Z,33.38
2023-04-16T07:54:17.087Z,32.70
2023-04-16T07:56:44.847Z,34.10
2023-04-16T07:59:21.872Z,34.03
2023-04-16T08:01:51.704Z,30.42
2023-04-16T08:04:24.590Z,35.60
2023-04-16T08:06:55.182Z,36.95
2023-04-16T08:09:24.941Z,31.73
2023-04-16T08:11:52.765Z,29.70
2023-04-16T08:14:21.196Z,30.88
2023-04-16T08:16:48.890Z,33.08
2023-04-16T08:19:16.677Z,32.80
2023-04-16T08:21:44.583Z,33.70
2023-04-16T08:24:13.793Z,29.98
2023-04-16T08:26:41.589Z,31.98
2023-04-16T08:29:09.568Z,32.80
2023-04-16T08:31:37.664Z,34.15
2023-04-16T08:34:05.729Z,35.47
2023-04-16T08:36:33.460Z,33.33
2023-04-16T08:39:01.215Z,36.50
2023-04-16T08:41:33.239Z,30.35
2023-04-16T08:44:05.933Z,30.60
2023-04-16T08:46:37.954Z,34.90
2023-04-16T08:49:09.504Z,27.25
2023-04-16T08:51:40.384Z,32.90
2023-04-16T08:54:13.150Z,31.05
2023-04-16T08:56:43.396Z,32.50
2023-04-16T08:59:11.845Z,30.70
2023-04-16T09:01:41.787Z,27.90
2023-04-16T09:04:10.823Z,28.70
2023-04-16T09:06:41.366Z,33.55
2023-04-16T09:09:10.594Z,33.80
2023-04-16T09:11:39.375Z,28.88
2023-04-16T09:14:11.341Z,31.05
2023-04-16T09:16:40.460Z,32.53
2023-04-16T09:19:08.540Z,33.08
2023-04-16T09:21:37.100Z,32.42
2023-04-16T09:24:05.384Z,28.17
2023-04-16T09:26:33.751Z,29.00
2023-04-16T09:29:01.768Z,27.48
2023-04-16T09:31:30.977Z,28.20
2023-04-16T09:34:03.764Z,29.15
2023-04-16T09:36:32.452Z,30.63
2023-04-16T09:39:00.996Z,33.60
2023-04-16T09:41:30.555Z,30.45
2023-04-16T09:43:59.931Z,28.55
2023-04-16T09:46:32.870Z,29.95
2023-04-16T09:49:06.310Z,30.85
2023-04-16T09:51:38.302Z,29.02
2023-04-16T09:54:06.815Z,29.48
2023-04-16T09:56:34.940Z,29.80
2023-04-16T09:59:02.672Z,27.42
2023-04-16T10:01:33.121Z,31.67
2023-04-16T10:04:01.034Z,28.88
2023-04-16T10:06:31.160Z,26.75
2023-04-16T10:08:59.001Z,30.80
2023-04-16T10:11:27.095Z,28.80
2023-04-16T10:13:54.977Z,29.85
2023-04-16T10:16:23.781Z,28.90
2023-04-16T10:18:54.413Z,29.40
2023-04-16T10:21:22.597Z,30.27
2023-04-16T10:23:52.523Z,28.60
2023-04-16T10:26:22.625Z,26.95
2023-04-16T10:28:51.294Z,28.92
2023-04-16T10:31:19.145Z,26.00
2023-04-16T10:33:47.422Z,26.35
2023-04-16T10:36:18.400Z,34.22
2023-04-16T10:38:47.490Z,28.35
2023-04-16T10:41:15.537Z,25.98
2023-04-16T10:43:45.472Z,29.35
2023-04-16T10:46:19.610Z,30.67
2023-04-16T10:48:50.439Z,27.80
2023-04-16T10:51:28.739Z,30.98
2023-04-16T10:53:57.410Z,29.08
2023-04-16T10:56:26.163Z,27.52
2023-04-16T10:58:56.038Z,31.40
2023-04-16T11:01:32.139Z,27.02
2023-04-16T11:04:02.765Z,32.13
2023-04-16T11:06:32.827Z,28.70
2023-04-16T11:09:00.826Z,28.58
2023-04-16T11:11:38.513Z,31.48
2023-04-16T11:14:07.098Z,35.22
2023-04-16T11:16:34.834Z,30.80
2023-04-16T11:19:03.015Z,33.97
2023-04-16T11:21:32.587Z,32.45
2023-04-16T11:24:00.367Z,32.08
2023-04-16T11:26:30.865Z,38.65
2023-04-16T11:29:00.233Z,33.10
2023-04-16T11:31:28.152Z,32.47
2023-04-16T11:33:57.865Z,33.58
2023-04-16T11:36:27.738Z,35.83
2023-04-16T11:39:04.503Z,32.55
2023-04-16T11:41:32.435Z,30.67
2023-04-16T11:44:00.383Z,33.92
2023-04-16T11:46:39.445Z,38.95
2023-04-16T11:49:07.509Z,34.30
2023-04-16T11:51:40.975Z,34.92
2023-04-16T11:54:11.874Z,31.65
2023-04-16T11:56:46.431Z,33.05
2023-04-16T11:59:15.679Z,38.25
2023-04-16T12:01:48.082Z,33.67
2023-04-16T12:04:17.047Z,32.78
2023-04-16T12:07:06.730Z,30.52
2023-04-16T12:09:39.574Z,28.63
2023-04-16T12:12:26.400Z,35.22
2023-04-16T12:14:54.556Z,31.00
2023-04-16T12:17:22.567Z,33.33
2023-04-16T12:19:52.184Z,29.05
2023-04-16T12:22:28.382Z,31.40
2023-04-16T12:25:05.130Z,28.85
2023-04-16T12:27:47.567Z,30.65
2023-04-16T12:30:17.025Z,30.98
2023-04-16T12:32:46.310Z,32.45
2023-04-16T12:35:14.620Z,30.50
2023-04-16T12:37:42.434Z,29.70
2023-04-16T12:40:12.229Z,27.65
2023-04-16T12:42:39.998Z,29.73
2023-04-16T12:45:08.450Z,34.13
2023-04-16T12:47:36.195Z,28.60
2023-04-16T12:50:04.065Z,30.17
2023-04-16T12:52:31.874Z,31.05
2023-04-16T12:54:59.786Z,27.38
2023-04-16T12:57:29.453Z,29.73
2023-04-16T12:59:57.493Z,30.27
2023-04-16T13:02:26.009Z,28.27
2023-04-16T13:04:55.057Z,26.08
2023-04-16T13:07:24.098Z,35.47
2023-04-16T13:09:51.997Z,26.98
2023-04-16T13:12:19.750Z,31.55
2023-04-16T13:14:48.864Z,27.85
2023-04-16T13:17:16.756Z,31.05
2023-04-16T13:19:45.194Z,30.67
2023-04-16T13:22:12.994Z,28.00
2023-04-16T13:24:40.830Z,27.52
2023-04-16T13:27:08.958Z,33.65
2023-04-16T13:29:37.458Z,34.45
2023-04-16T13:32:07.308Z,29.60
2023-04-16T13:34:35.201Z,31.17
2023-04-16T13:37:02.963Z,27.58
2023-04-16T13:39:30.649Z,25.55
2023-04-16T13:41:58.423Z,25.88
2023-04-16T13:44:26.337Z,31.15
2023-04-16T13:46:54.191Z,29.60
2023-04-16T13:49:23.656Z,28.40
2023-04-16T13:51:51.521Z,26.67
2023-04-16T13:54:19.314Z,31.00
2023-04-16T13:56:47.189Z,30.85
2023-04-16T13:59:16.639Z,35.03
2023-04-16T14:01:44.469Z,27.50
2023-04-16T14:04:12.236Z,26.92
2023-04-16T14:06:41.465Z,27.60
2023-04-16T14:09:10.749Z,28.83
2023-04-16T14:11:38.877Z,28.55
2023-04-16T14:14:06.783Z,27.15
2023-04-16T14:16:34.827Z,30.67
2023-04-16T14:19:02.669Z,24.75
2023-04-16T14:21:31.598Z,28.55
2023-04-16T14:24:00.796Z,26.65
2023-04-16T14:26:28.609Z,27.67
2023-04-16T14:28:56.446Z,27.85
2023-04-16T14:31:24.250Z,22.30
2023-04-16T14:33:52.014Z,21.38
2023-04-16T14:36:20.423Z,23.90
2023-04-16T14:38:48.723Z,26.00
2023-04-16T14:41:17.826Z,23.67
2023-04-16T14:43:45.597Z,21.73
2023-04-16T14:46:13.451Z,26.27
2023-04-16T14:48:41.366Z,22.40
2023-04-16T14:51:09.680Z,22.55
2023-04-16T14:53:37.993Z,24.35
2023-04-16T14:56:06.423Z,22.92
2023-04-16T14:58:37.848Z,20.98
2023-04-16T15:01:06.921Z,21.58
2023-04-16T15:03:34.803Z,25.05
2023-04-16T15:06:03.063Z,23.88
2023-04-16T15:08:31.366Z,22.33
2023-04-16T15:10:59.211Z,26.90
2023-04-16T15:13:33.516Z,24.33
2023-04-16T15:16:02.801Z,19.23
2023-04-16T15:18:30.661Z,23.60
2023-04-16T15:20:58.918Z,24.83
2023-04-16T15:23:26.726Z,27.50
2023-04-16T15:25:54.495Z,20.30
2023-04-16T15:28:22.272Z,23.25
2023-04-16T15:30:50.018Z,27.10
2023-04-16T15:33:21.877Z,20.17
2023-04-16T15:35:51.455Z,23.90
2023-04-16T15:38:21.011Z,19.77
2023-04-16T15:40:49.063Z,26.23
2023-04-16T15:43:16.962Z,23.02
2023-04-16T15:45:44.798Z,21.05
2023-04-16T15:48:12.645Z,24.52
2023-04-16T15:50:41.882Z,24.08
2023-04-16T15:53:09.684Z,23.40
2023-04-16T15:55:37.473Z,17.50
2023-04-16T15:58:05.620Z,22.02
2023-04-16T16:00:33.418Z,22.27
2023-04-16T16:03:01.295Z,25.00
2023-04-16T16:05:29.159Z,21.17
2023-04-16T16:07:58.698Z,22.92
2023-04-16T16:10:26.569Z,18.92
2023-04-16T16:12:54.505Z,20.52
2023-04-16T16:15:22.252Z,19.05
2023-04-16T16:17:50.036Z,20.45
2023-04-16T16:20:17.797Z,22.65
2023-04-16T16:22:47.555Z,19.67
2023-04-16T16:25:17.222Z,19.95
2023-04-16T16:27:44.915Z,19.88
2023-04-16T16:30:13.643Z,17.50
2023-04-16T16:32:43.730Z,19.98
2023-04-16T16:35:12.058Z,19.67
2023-04-16T16:37:39.885Z,20.65
2023-04-16T16:40:08.783Z,18.02
2023-04-16T16:42:37.918Z,19.00
2023-04-16T16:45:06.415Z,18.52
2023-04-16T16:47:34.527Z,18.27
2023-04-16T16:50:03.181Z,21.13
2023-04-16T16:52:32.056Z,19.05
2023-04-16T16:54:59.756Z,21.15
2023-04-16T16:57:27.566Z,24.20
2023-04-16T16:59:56.638Z,20.20
2023-04-16T17:02:24.674Z,20.73
2023-04-16T17:04:52.860Z,21.35
2023-04-16T17:07:20.827Z,22.90
2023-04-16T17:09:48.576Z,22.80
2023-04-16T17:12:17.699Z,19.95
2023-04-16T17:14:45.867Z,23.52
2023-04-16T17:17:14.908Z,20.85
2023-04-16T17:19:42.755Z,21.85
2023-04-16T17:22:10.716Z,20.88
2023-04-16T17:24:38.506Z,21.88
2023-04-16T17:27:06.392Z,23.70
2023-04-16T17:29:34.155Z,17.45
2023-04-16T17:32:01.993Z,23.35
2023-04-16T17:34:31.143Z,24.30
2023-04-16T17:36:58.852Z,21.95
2023-04-16T17:39:26.667Z,24.40
2023-04-16T17:41:58.286Z,20.70
2023-04-16T17:44:27.956Z,23.60
2023-04-16T17:46:55.786Z,34.67
2023-04-16T17:49:23.484Z,27.13
2023-04-16T17:51:53.620Z,25.83
2023-04-16T17:54:21.391Z,21.35
2023-04-16T17:56:49.166Z,22.13
2023-04-16T17:59:16.907Z,21.77
2023-04-16T18:01:45.446Z,21.30
2023-04-16T18:04:13.596Z,20.75
2023-04-16T18:06:41.949Z,19.98
2023-04-16T18:09:12.022Z,22.40
2023-04-16T18:11:39.815Z,20.55
2023-04-16T18:14:09.930Z,20.02
2023-04-16T18:16:37.907Z,23.95
2023-04-16T18:19:05.862Z,23.25
2023-04-16T18:21:33.897Z,24.25
2023-04-16T18:24:03.415Z,23.38
2023-04-16T18:26:35.717Z,20.58
2023-04-16T18:29:04.122Z,20.52
2023-04-16T18:31:31.917Z,19.80
2023-04-16T18:33:59.770Z,23.02
2023-04-16T18:36:27.609Z,25.85
2023-04-16T18:41:27.119Z,25.90
2023-04-16T18:43:56.294Z,26.33
2023-04-16T18:46:24.307Z,27.00
2023-04-16T18:48:52.128Z,26.33
2023-04-16T18:51:19.902Z,21.63
2023-04-16T18:53:47.606Z,24.15
2023-04-16T18:56:15.440Z,26.13
2023-04-16T18:58:43.260Z,27.77
2023-04-16T19:01:13.923Z,25.13
2023-04-16T19:03:41.765Z,33.58
2023-04-16T19:06:09.654Z,25.10
2023-04-16T19:08:37.412Z,29.83
2023-04-16T19:11:05.175Z,26.20
2023-04-16T19:13:33.079Z,21.77
2023-04-16T19:16:02.311Z,26.58
2023-04-16T19:18:31.574Z,25.73
2023-04-16T19:21:02.391Z,27.38
2023-04-16T19:23:30.315Z,23.85
2023-04-16T19:26:01.474Z,23.60
2023-04-16T19:28:29.311Z,21.85
2023-04-16T19:30:57.097Z,26.92
2023-04-16T19:33:24.823Z,23.73
2023-04-16T19:35:53.926Z,25.77
2023-04-16T19:38:21.765Z,22.50
2023-04-16T19:40:49.950Z,27.48
2023-04-16T19:43:17.675Z,27.27
2023-04-16T19:45:46.028Z,20.70
2023-04-16T19:48:14.399Z,23.92
2023-04-16T19:50:43.120Z,23.67
2023-04-16T19:53:12.947Z,26.35
2023-04-16T19:55:40.866Z,24.27
2023-04-16T19:58:08.876Z,26.13
2023-04-16T20:00:38.200Z,23.20
2023-04-16T20:03:06.383Z,25.02
2023-04-16T20:05:34.249Z,25.13
2023-04-16T20:08:02.252Z,25.17
2023-04-16T20:10:31.941Z,23.85
2023-04-16T20:12:59.702Z,27.13
2023-04-16T20:15:27.508Z,25.80
2023-04-16T20:17:56.025Z,25.75
2023-04-16T20:20:24.055Z,24.45
2023-04-16T20:22:51.842Z,29.15
2023-04-16T20:25:20.378Z,28.08
2023-04-16T20:27:49.683Z,22.20
2023-04-16T20:30:18.102Z,25.42
2023-04-16T20:32:45.933Z,21.75
2023-04-16T20:35:13.746Z,24.02
2023-04-16T20:37:42.952Z,24.42
2023-04-16T20:40:14.966Z,22.98
2023-04-16T20:42:46.233Z,26.55
2023-04-16T20:45:16.283Z,26.33
2023-04-16T20:47:44.440Z,25.95
2023-04-16T20:50:12.447Z,24.65
2023-04-16T20:52:40.163Z,27.63
2023-04-16T20:55:09.171Z,30.00
2023-04-16T20:57:36.842Z,24.52
2023-04-16T21:00:09.137Z,26.17
2023-04-16T21:02:38.551Z,27.10
2023-04-16T21:05:08.987Z,22.48
2023-04-16T21:07:36.847Z,26.13
2023-04-16T21:10:05.091Z,27.10
2023-04-16T21:12:32.905Z,24.70
2023-04-16T21:15:00.702Z,25.83
2023-04-16T21:17:28.813Z,27.20
2023-04-16T21:19:58.078Z,23.70
2023-04-16T21:22:25.939Z,25.98
2023-04-16T21:24:53.688Z,26.08
2023-04-16T21:27:21.529Z,26.33
2023-04-16T21:29:49.292Z,22.10
2023-04-16T21:32:17.055Z,23.35
2023-04-16T21:34:44.805Z,21.25
2023-04-16T21:37:13.918Z,23.02
2023-04-16T21:39:41.731Z,21.80
2023-04-16T21:42:09.648Z,23.60
2023-04-16T21:44:37.490Z,19.92
2023-04-16T21:47:05.312Z,26.40
2023-04-16T21:49:33.213Z,25.05
2023-04-16T21:52:02.484Z,21.45
2023-04-16T21:54:31.744Z,24.60
2023-04-16T21:56:59.495Z,21.77
2023-04-16T21:59:27.330Z,25.73
2023-04-16T22:01:55.125Z,20.60
2023-04-16T22:04:26.210Z,24.52
2023-04-16T22:06:56.198Z,25.20
2023-04-16T22:09:24.759Z,25.20
2023-04-16T22:11:53.883Z,26.02
2023-04-16T22:14:21.642Z,24.10
2023-04-16T22:16:51.806Z,23.58
2023-04-16T22:19:19.745Z,26.52
2023-04-16T22:21:47.878Z,25.92
2023-04-16T22:24:16.066Z,25.38
2023-04-16T22:26:43.802Z,24.73
2023-04-16T22:29:13.198Z,21.77
2023-04-16T22:31:41.275Z,24.77
2023-04-16T22:34:09.080Z,24.05
2023-04-16T22:36:36.807Z,21.65
2023-04-16T22:39:08.362Z,25.10
2023-04-16T22:41:36.605Z,23.55
2023-04-16T22:44:09.463Z,23.05
2023-04-16T22:46:38.710Z,19.90
2023-04-16T22:49:06.634Z,22.98
2023-04-16T22:51:34.413Z,19.75
2023-04-16T22:54:02.097Z,18.10
2023-04-16T22:56:31.014Z,22.10
2023-04-16T22:58:58.715Z,20.55
2023-04-16T23:01:26.594Z,20.55
2023-04-16T23:03:55.795Z,19.10
2023-04-16T23:06:23.583Z,22.98
2023-04-16T23:08:51.393Z,19.42
2023-04-16T23:11:19.165Z,20.65
2023-04-16T23:13:46.918Z,20.30
2023-04-16T23:16:14.702Z,18.80
2023-04-16T23:18:42.481Z,20.27
2023-04-16T23:21:11.563Z,20.67
2023-04-16T23:23:39.330Z,22.73
2023-04-16T23:26:07.048Z,22.73
2023-04-16T23:28:34.793Z,31.25
2023-04-16T23:31:04.174Z,22.15
2023-04-16T23:33:33.263Z,23.65
2023-04-16T23:36:01.085Z,25.73
2023-04-16T23:38:30.716Z,22.55
2023-04-16T23:40:58.403Z,23.52
2023-04-16T23:43:26.296Z,24.80
2023-04-16T23:45:54.039Z,22.08
2023-04-16T23:48:21.759Z,22.40
2023-04-16T23:50:49.562Z,19.10
2023-04-16T23:53:17.324Z,22.23
2023-04-16T23:55:46.432Z,19.45
2023-04-16T23:58:14.180Z,25.67
